createdAt,value
2022-08-28T00:00:23.604Z,69.09
2022-08-28T00:02:50.410Z,68.98
2022-08-28T00:05:19.954Z,69.18
2022-08-28T00:07:48.013Z,68.62
2022-08-28T00:10:16.155Z,68.50
2022-08-28T00:12:44.504Z,68.59
2022-08-28T00:15:15.128Z,68.53
2022-08-28T00:17:41.984Z,68.98
2022-08-28T00:20:10.523Z,69.97
2022-08-28T00:22:38.970Z,69.41
2022-08-28T00:25:08.061Z,69.59
2022-08-28T00:27:35.265Z,69.38
2022-08-28T00:30:01.985Z,68.79
2022-08-28T00:32:28.706Z,68.79
2022-08-28T00:34:55.901Z,69.24
2022-08-28T00:37:24.129Z,70.52
2022-08-28T00:39:51.619Z,69.80
2022-08-28T00:42:19.627Z,68.96
2022-08-28T00:44:46.440Z,68.89
2022-08-28T00:47:13.186Z,69.65
2022-08-28T00:49:51.198Z,69.22
2022-08-28T00:52:19.129Z,68.56
2022-08-28T00:54:59.364Z,68.90
2022-08-28T00:57:36.008Z,68.03
2022-08-28T01:00:07.751Z,68.28
2022-08-28T01:02:34.440Z,67.93
2022-08-28T01:05:03.830Z,68.86
2022-08-28T01:07:31.560Z,68.99
2022-08-28T01:09:58.142Z,68.99
2022-08-28T01:12:30.014Z,70.13
2022-08-28T01:14:59.836Z,71.12
2022-08-28T01:17:29.847Z,71.27
2022-08-28T01:20:00.231Z,71.30
2022-08-28T01:22:48.186Z,70.61
2022-08-28T01:25:19.903Z,69.91
2022-08-28T01:27:46.651Z,69.94
2022-08-28T01:30:17.890Z,68.55
2022-08-28T01:32:47.499Z,68.92
2022-08-28T01:35:20.298Z,70.29
2022-08-28T01:37:47.499Z,70.61
2022-08-28T01:40:20.093Z,70.22
2022-08-28T01:42:46.926Z,69.61
2022-08-28T01:45:17.267Z,68.85
2022-08-28T01:47:45.619Z,69.09
2022-08-28T01:50:20.678Z,69.68
2022-08-28T01:52:47.348Z,69.54
2022-08-28T01:55:14.325Z,69.86
2022-08-28T01:57:46.581Z,70.78
2022-08-28T02:00:14.966Z,71.08
2022-08-28T02:02:41.742Z,71.09
2022-08-28T02:05:09.768Z,69.99
2022-08-28T02:07:37.365Z,71.58
2022-08-28T02:10:06.268Z,72.21
2022-08-28T02:12:32.838Z,71.32
2022-08-28T02:14:59.971Z,72.20
2022-08-28T02:17:26.499Z,72.67
2022-08-28T02:19:53.144Z,73.69
2022-08-28T02:22:19.970Z,74.50
2022-08-28T02:24:46.987Z,73.66
2022-08-28T02:27:13.629Z,72.87
2022-08-28T02:29:40.360Z,73.88
2022-08-28T02:32:07.069Z,72.30
2022-08-28T02:34:34.891Z,71.90
2022-08-28T02:37:02.020Z,70.28
2022-08-28T02:39:28.968Z,69.71
2022-08-28T02:41:55.754Z,68.73
2022-08-28T02:44:22.403Z,68.45
2022-08-28T02:46:48.961Z,67.97
2022-08-28T02:49:15.625Z,66.84
2022-08-28T02:51:42.337Z,66.47
2022-08-28T02:54:08.960Z,68.00
2022-08-28T02:56:35.618Z,68.13
2022-08-28T02:59:02.351Z,68.09
2022-08-28T03:01:29.036Z,68.02
2022-08-28T03:03:55.736Z,67.17
2022-08-28T03:06:22.534Z,67.11
2022-08-28T03:08:49.198Z,67.65
2022-08-28T03:11:15.735Z,68.21
2022-08-28T03:13:42.399Z,67.39
2022-08-28T03:16:09.211Z,67.73
2022-08-28T03:18:36.054Z,67.69
2022-08-28T03:21:03.073Z,67.06
2022-08-28T03:23:29.777Z,66.43
2022-08-28T03:26:05.858Z,65.41
2022-08-28T03:28:39.736Z,67.64
2022-08-28T03:31:07.984Z,67.53
2022-08-28T03:33:35.215Z,65.58
2022-08-28T03:36:04.722Z,66.11
2022-08-28T03:38:31.885Z,65.88
2022-08-28T03:40:58.621Z,66.00
2022-08-28T03:43:25.650Z,66.08
2022-08-28T03:46:02.290Z,66.35
2022-08-28T03:48:32.971Z,66.42
2022-08-28T03:51:10.354Z,66.23
2022-08-28T03:53:38.099Z,66.12
2022-08-28T03:56:10.607Z,66.44
2022-08-28T03:58:38.311Z,65.60
2022-08-28T04:01:05.125Z,66.13
2022-08-28T04:03:31.810Z,65.64
2022-08-28T04:05:58.834Z,64.23
2022-08-28T04:08:25.633Z,64.64
2022-08-28T04:10:52.773Z,64.66
2022-08-28T04:13:21.532Z,66.48
2022-08-28T04:16:20.823Z,67.17
2022-08-28T04:18:49.717Z,68.19
2022-08-28T04:21:20.250Z,68.59
2022-08-28T04:23:48.001Z,68.43
2022-08-28T04:26:18.570Z,67.34
2022-08-28T04:28:46.479Z,67.39
2022-08-28T04:31:13.578Z,66.19
2022-08-28T04:33:41.251Z,66.20
2022-08-28T04:36:14.042Z,66.05
2022-08-28T04:38:43.951Z,65.89
2022-08-28T04:41:14.685Z,65.24
2022-08-28T04:43:42.297Z,64.92
2022-08-28T04:46:11.958Z,64.50
2022-08-28T04:48:40.149Z,64.62
2022-08-28T04:51:09.157Z,64.92
2022-08-28T04:53:37.618Z,64.94
2022-08-28T04:56:07.003Z,65.80
2022-08-28T04:58:34.348Z,66.20
2022-08-28T05:01:13.895Z,66.55
2022-08-28T05:03:41.062Z,65.77
2022-08-28T05:06:08.435Z,66.72
2022-08-28T05:08:35.785Z,66.58
2022-08-28T05:11:11.109Z,66.09
2022-08-28T05:13:37.933Z,65.92
2022-08-28T05:16:05.006Z,65.80
2022-08-28T05:18:32.261Z,65.85
2022-08-28T05:20:59.022Z,66.14
2022-08-28T05:23:25.978Z,65.65
2022-08-28T05:25:52.567Z,66.25
2022-08-28T05:28:19.531Z,65.56
2022-08-28T05:30:46.910Z,65.85
2022-08-28T05:33:15.436Z,66.02
2022-08-28T05:35:45.377Z,66.02
2022-08-28T05:38:13.873Z,66.31
2022-08-28T05:40:48.639Z,65.92
2022-08-28T05:43:16.768Z,66.02
2022-08-28T05:45:43.878Z,66.10
2022-08-28T05:48:10.657Z,66.34
2022-08-28T05:50:38.908Z,65.82
2022-08-28T05:53:05.870Z,66.80
2022-08-28T05:55:32.604Z,66.21
2022-08-28T05:57:59.267Z,67.40
2022-08-28T06:00:25.865Z,67.90
2022-08-28T06:02:52.621Z,67.88
2022-08-28T06:05:19.236Z,67.52
2022-08-28T06:07:45.870Z,66.73
2022-08-28T06:10:12.530Z,66.48
2022-08-28T06:12:39.183Z,67.55
2022-08-28T06:15:07.350Z,67.44
2022-08-28T06:17:34.615Z,66.30
2022-08-28T06:20:01.175Z,66.50
2022-08-28T06:22:27.909Z,65.54
2022-08-28T06:24:54.500Z,66.74
2022-08-28T06:27:22.266Z,67.08
2022-08-28T06:29:48.827Z,67.86
2022-08-28T06:32:15.569Z,68.45
2022-08-28T06:34:42.181Z,69.79
2022-08-28T06:37:08.794Z,71.64
2022-08-28T06:39:35.427Z,70.22
2022-08-28T06:42:02.148Z,71.77
2022-08-28T06:44:28.757Z,71.50
2022-08-28T06:46:55.611Z,71.30
2022-08-28T06:49:22.672Z,70.82
2022-08-28T06:51:49.743Z,70.41
2022-08-28T06:54:21.400Z,69.47
2022-08-28T06:56:50.042Z,67.91
2022-08-28T06:59:16.701Z,68.00
2022-08-28T07:01:43.536Z,69.16
2022-08-28T07:04:11.959Z,67.22
2022-08-28T07:06:41.935Z,67.99
2022-08-28T07:09:10.615Z,66.22
2022-08-28T07:11:38.438Z,64.61
2022-08-28T07:14:05.915Z,66.29
2022-08-28T07:16:36.757Z,66.49
2022-08-28T07:19:04.008Z,67.42
2022-08-28T07:21:31.792Z,67.69
2022-08-28T07:23:58.683Z,68.64
2022-08-28T07:26:26.148Z,66.13
2022-08-28T07:28:53.609Z,65.05
2022-08-28T07:31:40.570Z,65.04
2022-08-28T07:34:07.507Z,63.95
2022-08-28T07:36:34.521Z,63.82
2022-08-28T07:39:01.426Z,63.89
2022-08-28T07:41:31.486Z,62.88
2022-08-28T07:43:58.524Z,63.71
2022-08-28T07:46:25.204Z,63.63
2022-08-28T07:48:51.803Z,62.98
2022-08-28T07:51:18.516Z,64.23
2022-08-28T07:53:45.140Z,62.24
2022-08-28T07:56:11.834Z,61.62
2022-08-28T07:58:38.529Z,61.78
2022-08-28T08:01:05.676Z,61.00
2022-08-28T08:03:32.447Z,60.85
2022-08-28T08:06:02.560Z,60.41
2022-08-28T08:08:31.207Z,60.68
2022-08-28T08:11:05.491Z,59.64
2022-08-28T08:13:34.569Z,57.61
2022-08-28T08:16:07.322Z,59.11
2022-08-28T08:18:34.102Z,58.47
2022-08-28T08:21:03.771Z,58.45
2022-08-28T08:23:30.420Z,57.48
2022-08-28T08:25:59.582Z,55.89
2022-08-28T08:28:27.892Z,56.85
2022-08-28T08:31:14.667Z,55.77
2022-08-28T08:33:47.285Z,54.46
2022-08-28T08:36:17.866Z,54.53
2022-08-28T08:38:44.996Z,54.81
2022-08-28T08:41:30.011Z,55.38
2022-08-28T08:44:07.986Z,54.73
2022-08-28T08:46:46.425Z,54.22
2022-08-28T08:49:19.545Z,56.06
2022-08-28T08:51:57.657Z,54.22
2022-08-28T08:54:25.067Z,54.69
2022-08-28T08:56:55.688Z,52.67
2022-08-28T08:59:24.680Z,53.25
2022-08-28T09:02:12.434Z,52.82
2022-08-28T09:04:52.627Z,50.75
2022-08-28T09:07:34.285Z,51.06
2022-08-28T09:10:02.173Z,50.00
2022-08-28T09:12:31.138Z,49.00
2022-08-28T09:14:57.781Z,48.79
2022-08-28T09:17:30.723Z,49.89
2022-08-28T09:19:57.402Z,48.38
2022-08-28T09:22:27.278Z,45.92
2022-08-28T09:24:55.968Z,46.38
2022-08-28T09:27:33.500Z,45.67
2022-08-28T09:30:31.903Z,46.89
2022-08-28T09:33:05.563Z,46.00
2022-08-28T09:35:36.676Z,47.51
2022-08-28T09:38:21.644Z,46.69
2022-08-28T09:40:49.946Z,45.92
2022-08-28T09:43:32.475Z,46.92
2022-08-28T09:46:09.995Z,44.91
2022-08-28T09:48:38.581Z,45.30
2022-08-28T09:51:13.907Z,46.73
2022-08-28T09:53:56.569Z,46.79
2022-08-28T09:56:31.115Z,45.05
2022-08-28T09:59:10.176Z,45.38
2022-08-28T10:01:46.363Z,43.67
2022-08-28T10:04:22.502Z,44.75
2022-08-28T10:06:49.637Z,43.20
2022-08-28T10:09:50.279Z,42.44
2022-08-28T10:12:42.882Z,44.76
2022-08-28T10:15:27.163Z,46.84
2022-08-28T10:18:02.887Z,43.48
2022-08-28T10:20:49.515Z,43.87
2022-08-28T10:23:34.600Z,45.21
2022-08-28T10:26:32.370Z,42.84
2022-08-28T10:29:24.002Z,43.07
2022-08-28T10:32:05.756Z,42.78
2022-08-28T10:34:50.826Z,41.05
2022-08-28T10:37:29.518Z,39.89
2022-08-28T10:39:59.320Z,40.86
2022-08-28T10:42:59.146Z,40.78
2022-08-28T10:45:29.340Z,40.81
2022-08-28T10:48:05.132Z,41.18
2022-08-28T10:50:46.319Z,42.10
2022-08-28T10:53:18.006Z,41.89
2022-08-28T10:56:01.170Z,40.02
2022-08-28T10:58:28.725Z,39.73
2022-08-28T11:01:12.671Z,40.44
2022-08-28T11:03:43.888Z,42.54
2022-08-28T11:06:17.939Z,41.52
2022-08-28T11:08:53.057Z,42.68
2022-08-28T11:11:44.858Z,42.64
2022-08-28T11:14:24.409Z,43.02
2022-08-28T11:16:52.101Z,42.53
2022-08-28T11:19:56.242Z,42.25
2022-08-28T11:22:34.706Z,41.26
2022-08-28T11:25:14.477Z,41.84
2022-08-28T11:28:19.629Z,39.38
2022-08-28T11:30:49.052Z,38.30
2022-08-28T11:33:39.928Z,41.12
2022-08-28T11:36:11.198Z,41.21
2022-08-28T11:38:41.053Z,39.21
2022-08-28T11:41:10.766Z,40.79
2022-08-28T11:43:40.200Z,39.72
2022-08-28T11:46:24.100Z,38.94
2022-08-28T11:48:56.171Z,37.77
2022-08-28T11:51:31.931Z,39.01
2022-08-28T11:54:37.665Z,38.98
2022-08-28T11:57:23.847Z,39.78
2022-08-28T12:00:04.905Z,37.63
2022-08-28T12:02:40.907Z,37.48
2022-08-28T12:05:10.743Z,37.38
2022-08-28T12:07:39.845Z,37.83
2022-08-28T12:10:29.593Z,37.49
2022-08-28T12:13:05.707Z,36.37
2022-08-28T12:15:32.536Z,36.36
2022-08-28T12:18:11.286Z,37.09
2022-08-28T12:20:50.333Z,36.89
2022-08-28T12:23:23.150Z,38.45
2022-08-28T12:26:20.112Z,38.50
2022-08-28T12:28:51.246Z,36.84
2022-08-28T12:31:24.164Z,35.54
2022-08-28T12:34:04.377Z,38.06
2022-08-28T12:36:32.332Z,35.95
2022-08-28T12:38:59.004Z,38.10
2022-08-28T12:41:26.676Z,38.55
2022-08-28T12:43:58.051Z,38.17
2022-08-28T12:46:32.323Z,36.37
2022-08-28T12:49:02.170Z,35.60
2022-08-28T12:51:32.325Z,36.23
2022-08-28T12:54:08.106Z,36.74
2022-08-28T12:56:37.746Z,37.51
2022-08-28T12:59:22.494Z,34.68
2022-08-28T13:01:54.640Z,39.27
2022-08-28T13:04:54.349Z,40.71
2022-08-28T13:07:40.957Z,35.47
2022-08-28T13:10:19.966Z,35.18
2022-08-28T13:12:56.204Z,35.59
2022-08-28T13:15:56.804Z,35.60
2022-08-28T13:18:44.126Z,37.71
2022-08-28T13:21:17.679Z,36.69
2022-08-28T13:23:57.438Z,35.64
2022-08-28T13:26:26.026Z,34.03
2022-08-28T13:28:53.791Z,33.89
2022-08-28T13:31:29.989Z,35.97
2022-08-28T13:34:08.915Z,37.86
2022-08-28T13:36:45.106Z,34.00
2022-08-28T13:39:14.944Z,35.20
2022-08-28T13:41:44.364Z,34.56
2022-08-28T13:44:26.861Z,36.43
2022-08-28T13:46:53.752Z,35.67
2022-08-28T13:49:20.653Z,36.12
2022-08-28T13:51:47.381Z,38.41
2022-08-28T13:54:15.017Z,39.31
2022-08-28T13:56:42.988Z,38.34
2022-08-28T13:59:09.658Z,35.41
2022-08-28T14:01:42.236Z,35.11
2022-08-28T14:04:09.164Z,34.47
2022-08-28T14:06:35.915Z,34.97
2022-08-28T14:09:02.534Z,34.93
2022-08-28T14:11:29.102Z,35.05
2022-08-28T14:13:56.098Z,34.46
2022-08-28T14:16:24.890Z,34.90
2022-08-28T14:18:51.678Z,35.39
2022-08-28T14:21:18.410Z,34.21
2022-08-28T14:23:45.054Z,34.61
2022-08-28T14:26:11.573Z,34.57
2022-08-28T14:28:38.215Z,37.75
2022-08-28T14:31:06.921Z,36.36
2022-08-28T14:33:36.879Z,38.59
2022-08-28T14:36:03.834Z,34.42
2022-08-28T14:38:30.478Z,35.22
2022-08-28T14:40:57.041Z,34.90
2022-08-28T14:43:24.059Z,37.59
2022-08-28T14:45:50.780Z,33.16
2022-08-28T14:48:18.500Z,33.87
2022-08-28T14:50:47.668Z,34.93
2022-08-28T14:53:15.228Z,33.68
2022-08-28T14:55:48.124Z,34.65
2022-08-28T14:58:16.393Z,37.42
2022-08-28T15:00:47.057Z,34.07
2022-08-28T15:03:14.455Z,34.15
2022-08-28T15:05:42.434Z,35.83
2022-08-28T15:08:12.042Z,34.12
2022-08-28T15:10:40.575Z,36.30
2022-08-28T15:13:08.784Z,34.46
2022-08-28T15:15:39.787Z,36.24
2022-08-28T15:18:07.486Z,35.37
2022-08-28T15:20:46.458Z,35.18
2022-08-28T15:23:14.927Z,35.10
2022-08-28T15:25:41.896Z,34.65
2022-08-28T15:28:08.698Z,34.68
2022-08-28T15:30:35.647Z,36.25
2022-08-28T15:33:03.359Z,34.49
2022-08-28T15:35:29.990Z,35.49
2022-08-28T15:37:56.646Z,36.02
2022-08-28T15:40:23.303Z,36.16
2022-08-28T15:42:50.111Z,35.67
2022-08-28T15:45:16.655Z,34.38
2022-08-28T15:47:43.915Z,34.87
2022-08-28T15:50:11.445Z,34.65
2022-08-28T15:52:38.454Z,35.58
2022-08-28T15:55:05.394Z,36.45
2022-08-28T15:57:33.101Z,35.39
2022-08-28T15:59:59.796Z,34.69
2022-08-28T16:02:26.963Z,35.09
2022-08-28T16:04:54.745Z,35.36
2022-08-28T16:07:22.692Z,35.33
2022-08-28T16:09:49.378Z,36.83
2022-08-28T16:12:17.159Z,38.75
2022-08-28T16:14:43.943Z,36.94
2022-08-28T16:17:11.478Z,36.62
2022-08-28T16:19:39.554Z,36.95
2022-08-28T16:22:06.411Z,36.73
2022-08-28T16:24:32.926Z,35.86
2022-08-28T16:26:59.537Z,36.17
2022-08-28T16:29:26.077Z,37.11
2022-08-28T16:31:52.774Z,37.77
2022-08-28T16:34:20.281Z,37.93
2022-08-28T16:36:47.674Z,39.85
2022-08-28T16:39:14.310Z,38.89
2022-08-28T16:41:41.007Z,37.61
2022-08-28T16:44:07.714Z,37.86
2022-08-28T16:46:34.486Z,38.37
2022-08-28T16:49:01.126Z,38.16
2022-08-28T16:51:27.771Z,39.87
2022-08-28T16:53:56.097Z,39.06
2022-08-28T16:56:23.192Z,38.45
2022-08-28T16:58:53.263Z,39.72
2022-08-28T17:01:21.117Z,39.25
2022-08-28T17:03:48.340Z,39.68
2022-08-28T17:06:21.185Z,39.39
2022-08-28T17:08:47.805Z,38.14
2022-08-28T17:11:14.461Z,39.28
2022-08-28T17:13:41.379Z,39.84
2022-08-28T17:16:08.610Z,40.13
2022-08-28T17:18:38.042Z,39.94
2022-08-28T17:21:04.806Z,40.38
2022-08-28T17:23:31.510Z,40.93
2022-08-28T17:25:58.182Z,41.21
2022-08-28T17:28:24.905Z,41.45
2022-08-28T17:30:51.462Z,41.76
2022-08-28T17:33:18.124Z,42.17
2022-08-28T17:35:44.890Z,42.03
2022-08-28T17:38:16.909Z,42.17
2022-08-28T17:40:43.694Z,42.29
2022-08-28T17:43:10.336Z,42.90
2022-08-28T17:45:36.908Z,43.96
2022-08-28T17:48:04.223Z,43.08
2022-08-28T17:50:34.727Z,42.96
2022-08-28T17:53:05.976Z,44.38
2022-08-28T17:55:32.711Z,44.35
2022-08-28T17:57:59.324Z,45.76
2022-08-28T18:00:25.987Z,46.13
2022-08-28T18:02:52.668Z,45.20
2022-08-28T18:05:19.539Z,44.92
2022-08-28T18:07:46.262Z,44.81
2022-08-28T18:10:12.971Z,45.49
2022-08-28T18:12:40.896Z,45.16
2022-08-28T18:15:09.687Z,45.33
2022-08-28T18:17:38.351Z,45.31
2022-08-28T18:20:08.160Z,45.38
2022-08-28T18:22:34.769Z,45.59
2022-08-28T18:25:01.523Z,45.65
2022-08-28T18:27:28.134Z,45.87
2022-08-28T18:29:54.760Z,45.98
2022-08-28T18:32:21.587Z,46.55
2022-08-28T18:34:48.205Z,46.51
2022-08-28T18:37:14.747Z,46.12
2022-08-28T18:39:44.151Z,46.41
2022-08-28T18:42:11.281Z,47.15
2022-08-28T18:44:38.119Z,46.98
2022-08-28T18:47:05.186Z,46.76
2022-08-28T18:49:33.108Z,47.28
2022-08-28T18:52:02.231Z,46.87
2022-08-28T18:54:28.833Z,46.83
2022-08-28T18:56:59.631Z,46.80
2022-08-28T18:59:31.067Z,47.22
2022-08-28T19:01:58.183Z,47.10
2022-08-28T19:04:26.289Z,47.54
2022-08-28T19:06:53.078Z,47.80
2022-08-28T19:09:20.720Z,48.18
2022-08-28T19:11:47.882Z,48.65
2022-08-28T19:14:21.125Z,48.29
2022-08-28T19:16:47.727Z,48.10
2022-08-28T19:19:14.438Z,47.95
2022-08-28T19:21:42.601Z,48.17
2022-08-28T19:24:09.141Z,48.14
2022-08-28T19:26:38.563Z,47.69
2022-08-28T19:29:05.155Z,48.49
2022-08-28T19:31:33.349Z,48.81
2022-08-28T19:34:04.512Z,48.79
2022-08-28T19:36:33.958Z,48.24
2022-08-28T19:39:00.975Z,48.21
2022-08-28T19:41:27.897Z,48.71
2022-08-28T19:43:54.575Z,49.11
2022-08-28T19:46:21.341Z,49.24
2022-08-28T19:48:49.540Z,48.63
2022-08-28T19:51:22.191Z,48.50
2022-08-28T19:53:57.133Z,48.57
2022-08-28T19:56:24.927Z,48.65
2022-08-28T19:58:51.488Z,49.93
2022-08-28T20:01:18.174Z,49.79
2022-08-28T20:03:44.845Z,50.26
2022-08-28T20:06:11.520Z,50.22
2022-08-28T20:08:38.235Z,49.87
2022-08-28T20:11:05.014Z,50.11
2022-08-28T20:13:32.705Z,50.11
2022-08-28T20:16:04.363Z,50.09
2022-08-28T20:18:31.479Z,50.05
2022-08-28T20:20:58.122Z,50.76
2022-08-28T20:23:24.695Z,50.43
2022-08-28T20:25:51.728Z,50.36
2022-08-28T20:28:19.101Z,50.16
2022-08-28T20:30:46.266Z,50.53
2022-08-28T20:33:13.056Z,50.25
2022-08-28T20:35:40.226Z,50.32
2022-08-28T20:38:08.291Z,49.69
2022-08-28T20:40:35.615Z,49.80
2022-08-28T20:43:09.204Z,50.01
2022-08-28T20:45:35.975Z,50.38
2022-08-28T20:48:02.779Z,50.25
2022-08-28T20:50:29.355Z,50.26
2022-08-28T20:52:56.011Z,50.34
2022-08-28T20:55:22.610Z,50.68
2022-08-28T20:57:49.284Z,50.87
2022-08-28T21:00:16.303Z,50.40
2022-08-28T21:02:42.852Z,50.54
2022-08-28T21:05:09.694Z,50.75
2022-08-28T21:07:38.587Z,50.51
2022-08-28T21:10:07.925Z,50.79
2022-08-28T21:12:36.630Z,50.47
2022-08-28T21:15:05.661Z,50.29
2022-08-28T21:17:32.264Z,50.22
2022-08-28T21:20:05.382Z,50.68
2022-08-28T21:22:37.770Z,51.07
2022-08-28T21:25:06.917Z,52.70
2022-08-28T21:27:41.601Z,53.99
2022-08-28T21:30:10.035Z,54.12
2022-08-28T21:32:36.697Z,53.97
2022-08-28T21:35:09.889Z,53.81
2022-08-28T21:37:41.336Z,53.47
2022-08-28T21:40:10.904Z,53.88
2022-08-28T21:42:38.044Z,53.86
2022-08-28T21:45:11.231Z,54.37
2022-08-28T21:47:38.678Z,54.70
2022-08-28T21:50:05.921Z,54.45
2022-08-28T21:52:32.694Z,55.21
2022-08-28T21:55:08.602Z,54.93
2022-08-28T21:57:35.680Z,55.20
2022-08-28T22:00:16.675Z,54.97
2022-08-28T22:02:43.894Z,55.21
2022-08-28T22:05:10.821Z,54.87
2022-08-28T22:07:37.554Z,55.23
2022-08-28T22:10:04.450Z,54.94
2022-08-28T22:12:32.790Z,54.66
2022-08-28T22:14:59.879Z,54.99
2022-08-28T22:17:26.756Z,55.94
2022-08-28T22:19:53.334Z,56.33
2022-08-28T22:22:20.087Z,56.03
2022-08-28T22:24:46.742Z,56.15
2022-08-28T22:27:13.440Z,56.47
2022-08-28T22:29:40.808Z,55.18
2022-08-28T22:32:08.036Z,55.95
2022-08-28T22:34:39.849Z,55.59
2022-08-28T22:37:07.595Z,55.33
2022-08-28T22:39:34.199Z,55.72
2022-08-28T22:42:01.098Z,55.54
2022-08-28T22:44:27.698Z,55.59
2022-08-28T22:46:54.325Z,55.87
2022-08-28T22:49:20.858Z,56.52
2022-08-28T22:51:47.587Z,56.51
2022-08-28T22:54:14.154Z,56.33
2022-08-28T22:56:40.816Z,56.87
2022-08-28T22:59:07.675Z,57.48
2022-08-28T23:01:34.411Z,58.01
2022-08-28T23:04:01.085Z,58.62
2022-08-28T23:06:28.138Z,58.14
2022-08-28T23:08:55.116Z,59.02
2022-08-28T23:11:22.638Z,58.82
2022-08-28T23:13:49.579Z,58.51
2022-08-28T23:16:16.839Z,59.25
2022-08-28T23:19:06.657Z,59.05
2022-08-28T23:21:30.069Z,58.88
2022-08-28T23:23:57.226Z,59.04
2022-08-28T23:26:25.287Z,58.83
2022-08-28T23:28:52.393Z,58.20
2022-08-28T23:31:19.191Z,58.42
2022-08-28T23:33:46.028Z,58.52
2022-08-28T23:36:13.411Z,58.68
2022-08-28T23:38:43.298Z,58.51
2022-08-28T23:41:11.292Z,59.37
2022-08-28T23:43:38.531Z,58.59
2022-08-28T23:46:06.185Z,58.82
2022-08-28T23:48:32.981Z,58.57
2022-08-28T23:50:59.753Z,57.77
2022-08-28T23:53:26.447Z,58.12
2022-08-28T23:55:54.179Z,57.96
2022-08-28T23:58:22.516Z,58.66
